Aeroporto :
LOGIN :

Iscrizione | Disclaimer

   EN    FR    IT 

 










Sommario :    VFR   VFR Marginale   IFR   IFR Intensivo   IFR Molto Intensivo
Visibilità : 
Base nubi : 
>= 8 km
>= 3000ft
5 / 8 km
1000 / 3000 ft
1500m / 5 km
500 / 1000 ft
800 / 1500m
200 / 500 ft
< 800m
< 200 ft
Simboli :   Temporali  Nebbia  Neve Forte  Precipitazioni Forti  Vento > 20 kt
SIGMETs :   Varie  Temporali  Ghiacco  Turbolenza  Onda orograficha  Ceneri Vulcaniche







- Altitudine del aeroporto : 396 ft
- Carte del aeroporto


LFOZ - Orléans St Denis

ULTIMO METAR :
  • 222200Z AUTO 00000KT CAVOK 10/07 Q1020

METARs OBSOLETI :
  • 222130Z AUTO 00000KT CAVOK 11/07 Q1020
  • 222100Z AUTO 00000KT CAVOK 11/08 Q1020
  • 222030Z AUTO 00000KT CAVOK 13/08 Q1020
  • 222000Z AUTO VRB01KT CAVOK 14/08 Q1020
  • 221930Z AUTO 02003KT CAVOK 15/08 Q1020

TAF N/A
Nessun NOTAM noto per questo aeroporto.



MetMap, La meteo Aeronautica in un colpo d'occhio ! - Copyright ORBIFLY Dicembre 2007 - Disclaimer

ORBIFLY MET'MAP TEAM :

Programmazione e sviluppo : Alexandra Zaïnal
Concezione e sviluppo : Baudouin d'Aumeries
Co-Programmazione e sviluppo : Marc-Olivier Méhu
Supporto tecnico e logistico : Manuel Goepfert
Aiuto per la traduzione : Arnaldo La Scala

Contatto : metmap@orbifly.com




FONTI E CREDITI :

   NOAA